createdAt,value
2019-05-26T00:00:59.026Z,95551
2019-05-26T00:02:09.578Z,95555
2019-05-26T00:03:19.142Z,95547
2019-05-26T00:04:28.700Z,95551
2019-05-26T00:05:38.228Z,95549
2019-05-26T00:06:47.774Z,95548
2019-05-26T00:07:57.329Z,95547
2019-05-26T00:09:06.904Z,95549
2019-05-26T00:10:16.454Z,95548
2019-05-26T00:11:25.992Z,95548
2019-05-26T00:12:35.513Z,95545
2019-05-26T00:13:45.069Z,95549
2019-05-26T00:14:54.575Z,95543
2019-05-26T00:16:04.094Z,95541
2019-05-26T00:17:13.604Z,95541
2019-05-26T00:18:23.161Z,95541
2019-05-26T00:19:33.652Z,95537
2019-05-26T00:20:43.171Z,95539
2019-05-26T00:21:52.712Z,95539
2019-05-26T00:23:02.280Z,95536
2019-05-26T00:24:11.838Z,95536
2019-05-26T00:25:21.421Z,95538
2019-05-26T00:26:30.980Z,95532
2019-05-26T00:27:40.504Z,95532
2019-05-26T00:28:50.081Z,95529
2019-05-26T00:29:59.652Z,95524
2019-05-26T00:31:09.180Z,95521
2019-05-26T00:32:18.764Z,95522
2019-05-26T00:33:28.295Z,95526
2019-05-26T00:34:37.964Z,95519
2019-05-26T00:35:47.670Z,95524
2019-05-26T00:36:57.191Z,95523
2019-05-26T00:38:06.721Z,95521
2019-05-26T00:39:16.270Z,95524
2019-05-26T00:40:25.836Z,95517
2019-05-26T00:41:35.365Z,95521
2019-05-26T00:42:44.884Z,95516
2019-05-26T00:43:54.481Z,95517
2019-05-26T00:45:04.022Z,95517
2019-05-26T00:46:13.531Z,95518
2019-05-26T00:47:23.050Z,95519
2019-05-26T00:48:32.577Z,95519
2019-05-26T00:49:42.125Z,95518
2019-05-26T00:50:51.673Z,95522
2019-05-26T00:52:01.212Z,95518
2019-05-26T00:53:10.757Z,95522
2019-05-26T00:54:20.302Z,95517
2019-05-26T00:55:29.847Z,95522
2019-05-26T00:56:39.367Z,95520
2019-05-26T00:57:48.909Z,95518
2019-05-26T00:58:58.478Z,95519
2019-05-26T01:00:08.072Z,95519
2019-05-26T01:01:17.606Z,95517
2019-05-26T01:02:27.141Z,95518
2019-05-26T01:03:36.664Z,95517
2019-05-26T01:04:46.228Z,95517
2019-05-26T01:05:55.750Z,95517
2019-05-26T01:07:05.270Z,95515
2019-05-26T01:08:14.792Z,95514
2019-05-26T01:09:24.348Z,95514
2019-05-26T01:10:33.863Z,95513
2019-05-26T01:11:43.381Z,95515
2019-05-26T01:12:52.925Z,95516
2019-05-26T01:14:02.454Z,95514
2019-05-26T01:15:12.053Z,95517
2019-05-26T01:16:21.585Z,95517
2019-05-26T01:17:31.123Z,95512
2019-05-26T01:18:40.644Z,95508
2019-05-26T01:19:50.196Z,95505
2019-05-26T01:20:59.722Z,95506
2019-05-26T01:22:09.252Z,95504
2019-05-26T01:23:18.784Z,95506
2019-05-26T01:24:28.358Z,95504
2019-05-26T01:25:37.907Z,95506
2019-05-26T01:26:47.434Z,95508
2019-05-26T01:27:56.945Z,95507
2019-05-26T01:29:06.482Z,95507
2019-05-26T01:30:16.070Z,95507
2019-05-26T01:31:25.603Z,95511
2019-05-26T01:32:35.139Z,95514
2019-05-26T01:33:44.654Z,95516
2019-05-26T01:34:54.229Z,95513
2019-05-26T01:36:03.756Z,95517
2019-05-26T01:37:13.263Z,95514
2019-05-26T01:38:24.033Z,95514
2019-05-26T01:39:32.353Z,95513
2019-05-26T01:40:41.875Z,95517
2019-05-26T01:41:51.405Z,95513
2019-05-26T01:43:00.934Z,95516
2019-05-26T01:44:10.466Z,95516
2019-05-26T01:45:20.028Z,95517
2019-05-26T01:46:29.565Z,95513
2019-05-26T01:47:39.097Z,95521
2019-05-26T01:48:48.640Z,95512
2019-05-26T01:49:58.196Z,95514
2019-05-26T01:51:07.710Z,95511
2019-05-26T01:52:17.221Z,95513
2019-05-26T01:53:26.770Z,95514
2019-05-26T01:54:36.362Z,95510
2019-05-26T01:55:45.887Z,95514
2019-05-26T01:56:55.414Z,95516
2019-05-26T01:58:04.945Z,95514
2019-05-26T01:59:14.470Z,95518
2019-05-26T02:00:24.008Z,95514
2019-05-26T02:01:33.537Z,95517
2019-05-26T02:02:43.078Z,95519
2019-05-26T02:03:52.587Z,95515
2019-05-26T02:05:02.144Z,95518
2019-05-26T02:06:11.657Z,95519
2019-05-26T02:07:21.191Z,95522
2019-05-26T02:08:39.077Z,95523
2019-05-26T02:09:41.221Z,95521
2019-05-26T02:10:50.804Z,95521
2019-05-26T02:12:00.331Z,95518
2019-05-26T02:13:09.864Z,95524
2019-05-26T02:14:19.405Z,95520
2019-05-26T02:15:28.968Z,95519
2019-05-26T02:16:38.500Z,95519
2019-05-26T02:17:48.020Z,95516
2019-05-26T02:18:57.532Z,95521
2019-05-26T02:20:07.262Z,95522
2019-05-26T02:21:16.850Z,95519
2019-05-26T02:22:26.349Z,95523
2019-05-26T02:23:36.041Z,95524
2019-05-26T02:24:45.625Z,95527
2019-05-26T02:25:55.211Z,95526
2019-05-26T02:27:04.792Z,95525
2019-05-26T02:28:14.317Z,95520
2019-05-26T02:29:23.854Z,95522
2019-05-26T02:30:33.411Z,95522
2019-05-26T02:31:42.955Z,95525
2019-05-26T02:32:52.490Z,95524
2019-05-26T02:34:02.016Z,95521
2019-05-26T02:35:11.558Z,95520
2019-05-26T02:36:21.108Z,95518
2019-05-26T02:37:30.646Z,95524
2019-05-26T02:38:59.689Z,95520
2019-05-26T02:39:50.678Z,95519
2019-05-26T02:41:00.237Z,95523
2019-05-26T02:42:09.786Z,95523
2019-05-26T02:43:19.324Z,95522
2019-05-26T02:44:28.849Z,95520
2019-05-26T02:45:38.414Z,95519
2019-05-26T02:46:47.945Z,95521
2019-05-26T02:47:57.479Z,95518
2019-05-26T02:49:06.998Z,95517
2019-05-26T02:50:16.533Z,95515
2019-05-26T02:51:26.086Z,95518
2019-05-26T02:52:35.615Z,95521
2019-05-26T02:53:45.119Z,95515
2019-05-26T02:54:54.679Z,95518
2019-05-26T02:56:04.230Z,95519
2019-05-26T02:57:13.759Z,95520
2019-05-26T02:58:23.295Z,95518
2019-05-26T02:59:32.842Z,95524
2019-05-26T03:00:42.408Z,95521
2019-05-26T03:02:02.837Z,95521
2019-05-26T03:03:02.583Z,95520
2019-05-26T03:04:12.130Z,95520
2019-05-26T03:05:21.648Z,95517
2019-05-26T03:06:31.277Z,95518
2019-05-26T03:07:40.833Z,95517
2019-05-26T03:08:50.372Z,95515
2019-05-26T03:09:59.883Z,95518
2019-05-26T03:11:09.462Z,95515
2019-05-26T03:12:18.955Z,95515
2019-05-26T03:13:28.667Z,95516
2019-05-26T03:14:38.204Z,95519
2019-05-26T03:15:47.854Z,95519
2019-05-26T03:16:57.283Z,95521
2019-05-26T03:18:06.819Z,95516
2019-05-26T03:19:16.343Z,95522
2019-05-26T03:20:25.957Z,95520
2019-05-26T03:21:35.480Z,95526
2019-05-26T03:22:45.000Z,95524
2019-05-26T03:23:54.526Z,95521
2019-05-26T03:25:04.059Z,95522
2019-05-26T03:26:13.700Z,95521
2019-05-26T03:27:23.264Z,95518
2019-05-26T03:28:32.746Z,95519
2019-05-26T03:29:42.264Z,95519
2019-05-26T03:30:51.855Z,95521
2019-05-26T03:32:01.343Z,95521
2019-05-26T03:33:10.867Z,95517
2019-05-26T03:34:20.397Z,95520
2019-05-26T03:35:29.965Z,95515
2019-05-26T03:36:39.533Z,95520
2019-05-26T03:37:49.033Z,95522
2019-05-26T03:38:58.568Z,95521
2019-05-26T03:40:08.117Z,95519
2019-05-26T03:41:17.650Z,95524
2019-05-26T03:42:27.229Z,95522
2019-05-26T03:43:36.770Z,95523
2019-05-26T03:44:46.327Z,95525
2019-05-26T03:45:55.857Z,95521
2019-05-26T03:47:05.412Z,95522
2019-05-26T03:48:15.905Z,95526
2019-05-26T03:49:25.444Z,95525
2019-05-26T03:50:34.969Z,95523
2019-05-26T03:51:44.509Z,95522
2019-05-26T03:52:54.037Z,95522
2019-05-26T03:54:03.569Z,95523
2019-05-26T03:55:13.110Z,95522
2019-05-26T03:56:22.646Z,95523
2019-05-26T03:57:32.211Z,95523
2019-05-26T03:58:41.745Z,95522
2019-05-26T03:59:51.264Z,95524
2019-05-26T04:01:00.792Z,95520
2019-05-26T04:02:10.376Z,95522
2019-05-26T04:03:19.885Z,95522
2019-05-26T04:04:29.437Z,95520
2019-05-26T04:05:38.972Z,95523
2019-05-26T04:06:48.521Z,95523
2019-05-26T04:07:58.150Z,95525
2019-05-26T04:09:08.662Z,95527
2019-05-26T04:10:18.195Z,95525
2019-05-26T04:11:27.751Z,95531
2019-05-26T04:12:37.414Z,95531
2019-05-26T04:13:46.845Z,95533
2019-05-26T04:14:56.369Z,95533
2019-05-26T04:16:05.899Z,95536
2019-05-26T04:17:15.464Z,95538
2019-05-26T04:18:24.975Z,95539
2019-05-26T04:19:34.507Z,95540
2019-05-26T04:20:45.856Z,95539
2019-05-26T04:21:53.570Z,95544
2019-05-26T04:23:04.128Z,95539
2019-05-26T04:24:13.637Z,95541
2019-05-26T04:25:23.168Z,95539
2019-05-26T04:26:32.716Z,95538
2019-05-26T04:27:42.290Z,95541
2019-05-26T04:28:51.850Z,95541
2019-05-26T04:30:01.420Z,95543
2019-05-26T04:31:10.990Z,95537
2019-05-26T04:32:20.582Z,95536
2019-05-26T04:33:30.077Z,95544
2019-05-26T04:34:39.610Z,95545
2019-05-26T04:35:49.138Z,95541
2019-05-26T04:36:58.664Z,95544
2019-05-26T04:38:08.236Z,95545
2019-05-26T04:39:17.770Z,95543
2019-05-26T04:40:28.115Z,95545
2019-05-26T04:41:36.815Z,95545
2019-05-26T04:42:46.374Z,95539
2019-05-26T04:43:55.920Z,95541
2019-05-26T04:45:05.449Z,95543
2019-05-26T04:46:15.049Z,95545
2019-05-26T04:47:24.568Z,95541
2019-05-26T04:48:34.371Z,95540
2019-05-26T04:49:43.893Z,95544
2019-05-26T04:50:53.412Z,95549
2019-05-26T04:52:02.941Z,95546
2019-05-26T04:53:12.502Z,95548
2019-05-26T04:54:22.027Z,95547
2019-05-26T04:55:31.572Z,95546
2019-05-26T04:56:41.100Z,95550
2019-05-26T04:57:50.649Z,95549
2019-05-26T04:59:00.163Z,95552
2019-05-26T05:00:09.683Z,95549
2019-05-26T05:01:19.262Z,95553
2019-05-26T05:02:28.796Z,95555
2019-05-26T05:03:38.343Z,95553
2019-05-26T05:04:47.878Z,95551
2019-05-26T05:05:57.490Z,95552
2019-05-26T05:07:07.036Z,95551
2019-05-26T05:08:16.599Z,95559
2019-05-26T05:09:26.195Z,95552
2019-05-26T05:10:42.150Z,95557
2019-05-26T05:11:46.190Z,95555
2019-05-26T05:12:55.778Z,95551
2019-05-26T05:14:05.318Z,95552
2019-05-26T05:15:14.907Z,95552
2019-05-26T05:16:24.352Z,95553
2019-05-26T05:17:33.883Z,95549
2019-05-26T05:18:43.453Z,95553
2019-05-26T05:19:53.007Z,95552
2019-05-26T05:21:02.517Z,95552
2019-05-26T05:22:12.044Z,95555
2019-05-26T05:23:21.596Z,95557
2019-05-26T05:24:31.116Z,95561
2019-05-26T05:25:40.664Z,95560
2019-05-26T05:26:50.188Z,95559
2019-05-26T05:27:59.722Z,95559
2019-05-26T05:29:09.287Z,95561
2019-05-26T05:30:18.888Z,95561
2019-05-26T05:31:28.424Z,95564
2019-05-26T05:32:37.955Z,95561
2019-05-26T05:33:47.572Z,95565
2019-05-26T05:34:57.102Z,95566
2019-05-26T05:36:06.628Z,95567
2019-05-26T05:37:16.335Z,95563
2019-05-26T05:38:26.795Z,95567
2019-05-26T05:39:36.328Z,95569
2019-05-26T05:40:58.659Z,95569
2019-05-26T05:41:56.351Z,95567
2019-05-26T05:43:05.880Z,95568
2019-05-26T05:44:15.438Z,95570
2019-05-26T05:45:24.993Z,95568
2019-05-26T05:46:34.524Z,95567
2019-05-26T05:47:44.030Z,95567
2019-05-26T05:48:53.605Z,95566
2019-05-26T05:50:03.133Z,95567
2019-05-26T05:51:12.676Z,95566
2019-05-26T05:52:22.211Z,95563
2019-05-26T05:53:31.776Z,95564
2019-05-26T05:54:41.458Z,95558
2019-05-26T05:55:51.013Z,95559
2019-05-26T05:57:00.531Z,95564
2019-05-26T05:58:10.074Z,95560
2019-05-26T05:59:19.622Z,95559
2019-05-26T06:00:29.137Z,95563
2019-05-26T06:01:38.664Z,95564
2019-05-26T06:02:48.191Z,95561
2019-05-26T06:03:57.740Z,95565
2019-05-26T06:05:08.277Z,95565
2019-05-26T06:06:17.811Z,95563
2019-05-26T06:07:27.364Z,95563
2019-05-26T06:08:36.895Z,95568
2019-05-26T06:09:46.435Z,95571
2019-05-26T06:10:55.949Z,95569
2019-05-26T06:12:06.460Z,95569
2019-05-26T06:13:15.986Z,95572
2019-05-26T06:14:25.561Z,95572
2019-05-26T06:15:35.102Z,95577
2019-05-26T06:16:44.668Z,95578
2019-05-26T06:17:54.192Z,95581
2019-05-26T06:19:03.781Z,95578
2019-05-26T06:20:13.317Z,95583
2019-05-26T06:21:22.835Z,95582
2019-05-26T06:22:32.374Z,95581
2019-05-26T06:23:41.889Z,95577
2019-05-26T06:24:51.450Z,95578
2019-05-26T06:26:16.751Z,95582
2019-05-26T06:27:26.267Z,95579
2019-05-26T06:28:35.839Z,95580
2019-05-26T06:29:58.205Z,95582
2019-05-26T06:30:55.866Z,95581
2019-05-26T06:32:05.701Z,95578
2019-05-26T06:33:14.963Z,95577
2019-05-26T06:34:24.536Z,95574
2019-05-26T06:35:34.054Z,95578
2019-05-26T06:36:43.584Z,95574
2019-05-26T06:37:53.112Z,95574
2019-05-26T06:39:02.675Z,95571
2019-05-26T06:40:12.187Z,95569
2019-05-26T06:41:32.650Z,95576
2019-05-26T06:42:32.215Z,95567
2019-05-26T06:43:41.730Z,95571
2019-05-26T06:44:53.764Z,95571
2019-05-26T06:46:00.837Z,95569
2019-05-26T06:47:10.378Z,95574
2019-05-26T06:48:19.899Z,95577
2019-05-26T06:49:30.492Z,95576
2019-05-26T06:50:40.067Z,95578
2019-05-26T06:51:49.590Z,95576
2019-05-26T06:52:59.139Z,95579
2019-05-26T06:54:08.673Z,95578
2019-05-26T06:55:18.219Z,95578
2019-05-26T06:56:27.755Z,95585
2019-05-26T06:57:37.270Z,95583
2019-05-26T06:58:46.807Z,95585
2019-05-26T06:59:56.375Z,95580
2019-05-26T07:01:05.919Z,95581
2019-05-26T07:02:15.450Z,95586
2019-05-26T07:03:25.037Z,95584
2019-05-26T07:04:34.563Z,95585
2019-05-26T07:05:44.110Z,95585
2019-05-26T07:06:53.648Z,95586
2019-05-26T07:08:03.232Z,95590
2019-05-26T07:09:12.684Z,95589
2019-05-26T07:10:22.228Z,95590
2019-05-26T07:11:31.849Z,95588
2019-05-26T07:12:42.359Z,95592
2019-05-26T07:13:51.908Z,95592
2019-05-26T07:15:01.468Z,95591
2019-05-26T07:16:11.001Z,95590
2019-05-26T07:17:20.784Z,95592
2019-05-26T07:18:30.058Z,95588
2019-05-26T07:19:39.610Z,95590
2019-05-26T07:20:49.162Z,95593
2019-05-26T07:21:59.707Z,95594
2019-05-26T07:23:09.640Z,95599
2019-05-26T07:24:18.787Z,95603
2019-05-26T07:25:29.357Z,95598
2019-05-26T07:26:38.935Z,95596
2019-05-26T07:27:48.514Z,95601
2019-05-26T07:28:58.045Z,95604
2019-05-26T07:30:07.628Z,95608
2019-05-26T07:31:17.517Z,95609
2019-05-26T07:32:26.827Z,95610
2019-05-26T07:33:36.415Z,95617
2019-05-26T07:34:45.951Z,95615
2019-05-26T07:35:55.489Z,95619
2019-05-26T07:37:05.004Z,95617
2019-05-26T07:38:14.552Z,95615
2019-05-26T07:39:24.126Z,95620
2019-05-26T07:40:33.691Z,95614
2019-05-26T07:41:43.198Z,95613
2019-05-26T07:42:53.716Z,95611
2019-05-26T07:44:03.259Z,95616
2019-05-26T07:45:12.843Z,95610
2019-05-26T07:46:22.422Z,95611
2019-05-26T07:47:31.943Z,95611
2019-05-26T07:48:41.486Z,95608
2019-05-26T07:49:51.078Z,95610
2019-05-26T07:51:00.671Z,95603
2019-05-26T07:52:10.236Z,95604
2019-05-26T07:53:19.760Z,95608
2019-05-26T07:54:29.268Z,95606
2019-05-26T07:55:38.884Z,95607
2019-05-26T07:56:48.407Z,95602
2019-05-26T07:57:57.967Z,95598
2019-05-26T07:59:07.474Z,95605
2019-05-26T08:00:17.001Z,95603
2019-05-26T08:01:35.385Z,95611
2019-05-26T08:02:37.075Z,95609
2019-05-26T08:03:46.613Z,95608
2019-05-26T08:04:56.246Z,95607
2019-05-26T08:06:05.827Z,95608
2019-05-26T08:07:15.342Z,95604
2019-05-26T08:08:25.858Z,95606
2019-05-26T08:09:35.484Z,95603
2019-05-26T08:10:45.064Z,95606
2019-05-26T08:11:54.759Z,95603
2019-05-26T08:13:04.345Z,95604
2019-05-26T08:14:13.840Z,95606
2019-05-26T08:15:23.401Z,95609
2019-05-26T08:16:32.990Z,95605
2019-05-26T08:17:42.532Z,95603
2019-05-26T08:18:52.113Z,95607
2019-05-26T08:20:01.625Z,95605
2019-05-26T08:21:11.225Z,95596
2019-05-26T08:22:20.779Z,95598
2019-05-26T08:23:30.350Z,95597
2019-05-26T08:24:39.970Z,95597
2019-05-26T08:25:49.604Z,95595
2019-05-26T08:26:59.150Z,95598
2019-05-26T08:28:09.677Z,95591
2019-05-26T08:29:19.178Z,95594
2019-05-26T08:30:28.735Z,95590
2019-05-26T08:31:38.272Z,95590
2019-05-26T08:32:47.797Z,95593
2019-05-26T08:33:57.350Z,95581
2019-05-26T08:35:06.924Z,95588
2019-05-26T08:36:16.474Z,95579
2019-05-26T08:37:26.083Z,95581
2019-05-26T08:38:35.611Z,95580
2019-05-26T08:39:48.245Z,95585
2019-05-26T08:40:54.667Z,95577
2019-05-26T08:42:04.339Z,95585
2019-05-26T08:43:14.895Z,95586
2019-05-26T08:44:24.450Z,95589
2019-05-26T08:45:33.982Z,95585
2019-05-26T08:46:43.560Z,95586
2019-05-26T08:47:53.071Z,95583
2019-05-26T08:49:02.604Z,95589
2019-05-26T08:50:12.200Z,95583
2019-05-26T08:51:21.728Z,95589
2019-05-26T08:52:31.350Z,95585
2019-05-26T08:53:40.896Z,95583
2019-05-26T08:54:50.416Z,95581
2019-05-26T08:55:59.962Z,95585
2019-05-26T08:57:09.511Z,95578
2019-05-26T08:58:19.033Z,95585
2019-05-26T08:59:28.588Z,95585
2019-05-26T09:00:38.177Z,95579
2019-05-26T09:01:47.709Z,95580
2019-05-26T09:02:57.266Z,95583
2019-05-26T09:04:06.795Z,95575
2019-05-26T09:05:16.325Z,95579
2019-05-26T09:06:25.853Z,95577
2019-05-26T09:07:35.467Z,95579
2019-05-26T09:08:44.941Z,95575
2019-05-26T09:09:54.542Z,95578
2019-05-26T09:11:04.055Z,95575
2019-05-26T09:12:13.605Z,95575
2019-05-26T09:13:23.234Z,95579
2019-05-26T09:14:32.764Z,95574
2019-05-26T09:15:42.302Z,95574
2019-05-26T09:16:51.835Z,95575
2019-05-26T09:18:01.434Z,95581
2019-05-26T09:19:10.970Z,95576
2019-05-26T09:20:20.485Z,95577
2019-05-26T09:21:29.986Z,95574
2019-05-26T09:22:39.561Z,95575
2019-05-26T09:23:49.099Z,95578
2019-05-26T09:24:58.646Z,95579
2019-05-26T09:26:08.194Z,95572
2019-05-26T09:27:17.719Z,95573
2019-05-26T09:28:27.269Z,95572
2019-05-26T09:29:36.777Z,95573
2019-05-26T09:30:46.327Z,95570
2019-05-26T09:31:55.903Z,95571
2019-05-26T09:33:05.455Z,95573
2019-05-26T09:34:14.973Z,95568
2019-05-26T09:35:24.506Z,95570
2019-05-26T09:36:34.037Z,95564
2019-05-26T09:37:43.614Z,95561
2019-05-26T09:38:53.300Z,95565
2019-05-26T09:40:02.834Z,95565
2019-05-26T09:41:12.341Z,95562
2019-05-26T09:42:22.530Z,95557
2019-05-26T09:43:31.495Z,95552
2019-05-26T09:44:40.998Z,95553
2019-05-26T09:45:50.668Z,95555
2019-05-26T09:47:00.116Z,95559
2019-05-26T09:48:09.695Z,95554
2019-05-26T09:49:19.216Z,95557
2019-05-26T09:50:28.759Z,95557
2019-05-26T09:51:38.334Z,95557
2019-05-26T09:52:47.896Z,95558
2019-05-26T09:54:01.512Z,95557
2019-05-26T09:55:06.979Z,95554
2019-05-26T09:56:16.511Z,95556
2019-05-26T09:57:26.094Z,95557
2019-05-26T09:58:35.665Z,95548
2019-05-26T09:59:45.192Z,95551
2019-05-26T10:00:54.745Z,95549
2019-05-26T10:02:04.291Z,95544
2019-05-26T10:03:13.786Z,95546
2019-05-26T10:04:23.358Z,95547
2019-05-26T10:05:32.889Z,95549
2019-05-26T10:06:42.410Z,95553
2019-05-26T10:07:51.945Z,95551
2019-05-26T10:09:01.503Z,95549
2019-05-26T10:10:11.020Z,95545
2019-05-26T10:11:20.557Z,95545
2019-05-26T10:12:30.105Z,95542
2019-05-26T10:13:39.765Z,95541
2019-05-26T10:14:49.290Z,95544
2019-05-26T10:15:58.833Z,95542
2019-05-26T10:17:08.371Z,95544
2019-05-26T10:18:17.915Z,95543
2019-05-26T10:19:27.478Z,95544
2019-05-26T10:20:37.000Z,95546
2019-05-26T10:21:46.522Z,95540
2019-05-26T10:22:56.083Z,95545
2019-05-26T10:24:05.650Z,95545
2019-05-26T10:25:15.162Z,95541
2019-05-26T10:26:24.688Z,95550
2019-05-26T10:27:34.214Z,95545
2019-05-26T10:28:44.723Z,95549
2019-05-26T10:29:54.404Z,95547
2019-05-26T10:31:03.929Z,95544
2019-05-26T10:32:13.463Z,95547
2019-05-26T10:33:22.993Z,95542
2019-05-26T10:34:33.063Z,95545
2019-05-26T10:35:42.824Z,95541
2019-05-26T10:36:52.356Z,95539
2019-05-26T10:38:01.934Z,95541
2019-05-26T10:39:11.480Z,95542
2019-05-26T10:40:21.011Z,95540
2019-05-26T10:41:30.591Z,95540
2019-05-26T10:42:40.069Z,95543
2019-05-26T10:43:49.611Z,95545
2019-05-26T10:44:59.200Z,95543
2019-05-26T10:46:08.720Z,95538
2019-05-26T10:47:18.263Z,95537
2019-05-26T10:48:27.800Z,95534
2019-05-26T10:49:37.332Z,95537
2019-05-26T10:50:46.865Z,95531
2019-05-26T10:51:56.392Z,95531
2019-05-26T10:53:05.952Z,95531
2019-05-26T10:54:15.516Z,95526
2019-05-26T10:55:25.143Z,95527
2019-05-26T10:56:34.714Z,95530
2019-05-26T10:57:44.260Z,95532
2019-05-26T10:58:53.806Z,95528
2019-05-26T11:00:03.522Z,95532
2019-05-26T11:01:13.095Z,95527
2019-05-26T11:02:22.600Z,95532
2019-05-26T11:03:32.152Z,95531
2019-05-26T11:04:41.708Z,95527
2019-05-26T11:05:51.267Z,95529
2019-05-26T11:07:00.806Z,95529
2019-05-26T11:08:10.429Z,95525
2019-05-26T11:09:20.055Z,95524
2019-05-26T11:10:29.601Z,95526
2019-05-26T11:11:39.268Z,95522
2019-05-26T11:12:48.809Z,95528
2019-05-26T11:14:02.666Z,95523
2019-05-26T11:15:08.065Z,95526
2019-05-26T11:16:17.585Z,95526
2019-05-26T11:17:27.116Z,95526
2019-05-26T11:18:36.690Z,95526
2019-05-26T11:19:46.268Z,95525
2019-05-26T11:20:55.802Z,95519
2019-05-26T11:22:05.329Z,95515
2019-05-26T11:23:15.067Z,95519
2019-05-26T11:24:24.616Z,95510
2019-05-26T11:25:34.147Z,95509
2019-05-26T11:26:43.764Z,95512
2019-05-26T11:27:53.364Z,95508
2019-05-26T11:29:02.905Z,95513
2019-05-26T11:30:12.519Z,95510
2019-05-26T11:31:22.127Z,95511
2019-05-26T11:32:31.663Z,95510
2019-05-26T11:33:41.392Z,95505
2019-05-26T11:35:00.919Z,95499
2019-05-26T11:36:01.430Z,95505
2019-05-26T11:37:10.965Z,95502
2019-05-26T11:38:20.537Z,95501
2019-05-26T11:39:30.123Z,95503
2019-05-26T11:40:39.822Z,95500
2019-05-26T11:41:54.777Z,95502
2019-05-26T11:42:58.894Z,95496
2019-05-26T11:44:17.276Z,95493
2019-05-26T11:45:19.919Z,95492
2019-05-26T11:46:29.486Z,95488
2019-05-26T11:47:39.100Z,95495
2019-05-26T11:48:48.677Z,95497
2019-05-26T11:49:58.285Z,95489
2019-05-26T11:51:07.828Z,95492
2019-05-26T11:52:20.176Z,95490
2019-05-26T11:53:26.977Z,95492
2019-05-26T11:54:36.624Z,95484
2019-05-26T11:55:46.115Z,95481
2019-05-26T11:56:55.660Z,95480
2019-05-26T11:58:05.217Z,95483
2019-05-26T11:59:14.733Z,95476
2019-05-26T12:00:24.322Z,95481
2019-05-26T12:01:33.849Z,95476
2019-05-26T12:02:43.413Z,95476
2019-05-26T12:03:52.940Z,95476
2019-05-26T12:05:02.554Z,95479
2019-05-26T12:06:12.104Z,95480
2019-05-26T12:07:21.632Z,95476
2019-05-26T12:08:31.195Z,95474
2019-05-26T12:09:40.744Z,95474
2019-05-26T12:10:50.528Z,95474
2019-05-26T12:12:01.068Z,95470
2019-05-26T12:13:10.624Z,95471
2019-05-26T12:14:33.332Z,95468
2019-05-26T12:15:30.848Z,95456
2019-05-26T12:16:40.371Z,95460
2019-05-26T12:17:50.007Z,95456
2019-05-26T12:18:59.602Z,95462
2019-05-26T12:20:09.285Z,95460
2019-05-26T12:21:18.839Z,95463
2019-05-26T12:22:28.396Z,95453
2019-05-26T12:23:38.952Z,95456
2019-05-26T12:24:48.497Z,95447
2019-05-26T12:25:58.076Z,95450
2019-05-26T12:27:07.609Z,95441
2019-05-26T12:28:17.210Z,95446
2019-05-26T12:29:26.855Z,95441
2019-05-26T12:30:36.647Z,95439
2019-05-26T12:31:46.391Z,95431
2019-05-26T12:32:55.920Z,95438
2019-05-26T12:34:05.440Z,95439
2019-05-26T12:35:15.004Z,95443
2019-05-26T12:36:24.572Z,95438
2019-05-26T12:37:34.102Z,95440
2019-05-26T12:38:43.698Z,95437
2019-05-26T12:39:53.242Z,95438
2019-05-26T12:41:02.920Z,95437
2019-05-26T12:42:12.477Z,95440
2019-05-26T12:43:22.066Z,95435
2019-05-26T12:44:31.628Z,95440
2019-05-26T12:45:42.246Z,95440
2019-05-26T12:46:51.825Z,95432
2019-05-26T12:48:01.352Z,95435
2019-05-26T12:49:10.907Z,95438
2019-05-26T12:50:20.454Z,95433
2019-05-26T12:51:30.183Z,95431
2019-05-26T12:52:39.680Z,95434
2019-05-26T12:53:49.231Z,95435
2019-05-26T12:54:58.788Z,95437
2019-05-26T12:56:09.318Z,95436
2019-05-26T12:57:18.919Z,95437
2019-05-26T12:58:28.494Z,95431
2019-05-26T12:59:38.020Z,95431
2019-05-26T13:00:50.696Z,95427
2019-05-26T13:01:58.281Z,95424
2019-05-26T13:03:07.845Z,95423
2019-05-26T13:04:17.424Z,95425
2019-05-26T13:05:26.972Z,95424
2019-05-26T13:06:36.502Z,95425
2019-05-26T13:07:46.088Z,95431
2019-05-26T13:08:55.606Z,95428
2019-05-26T13:10:05.137Z,95439
2019-05-26T13:11:14.699Z,95429
2019-05-26T13:12:25.342Z,95427
2019-05-26T13:13:35.788Z,95429
2019-05-26T13:14:45.335Z,95428
2019-05-26T13:15:55.874Z,95426
2019-05-26T13:17:05.436Z,95422
2019-05-26T13:18:14.993Z,95416
2019-05-26T13:19:24.531Z,95416
2019-05-26T13:20:34.143Z,95420
2019-05-26T13:21:43.682Z,95418
2019-05-26T13:22:53.358Z,95417
2019-05-26T13:24:02.931Z,95410
2019-05-26T13:25:12.446Z,95411
2019-05-26T13:26:21.982Z,95411
2019-05-26T13:27:31.587Z,95408
2019-05-26T13:28:41.116Z,95409
2019-05-26T13:29:50.732Z,95410
2019-05-26T13:31:00.242Z,95407
2019-05-26T13:32:09.777Z,95407
2019-05-26T13:33:19.319Z,95408
2019-05-26T13:34:28.831Z,95406
2019-05-26T13:35:39.319Z,95404
2019-05-26T13:36:48.859Z,95406
2019-05-26T13:37:58.380Z,95412
2019-05-26T13:39:07.891Z,95407
2019-05-26T13:40:17.416Z,95406
2019-05-26T13:41:26.942Z,95407
2019-05-26T13:42:36.473Z,95409
2019-05-26T13:43:46.060Z,95402
2019-05-26T13:44:55.561Z,95400
2019-05-26T13:46:05.080Z,95397
2019-05-26T13:47:25.631Z,95398
2019-05-26T13:48:25.105Z,95398
2019-05-26T13:49:34.629Z,95401
2019-05-26T13:50:44.156Z,95397
2019-05-26T13:51:53.704Z,95395
2019-05-26T13:53:03.236Z,95397
2019-05-26T13:54:12.829Z,95390
2019-05-26T13:55:22.364Z,95389
2019-05-26T13:56:31.893Z,95391
2019-05-26T13:57:41.419Z,95386
2019-05-26T13:58:51.948Z,95382
2019-05-26T14:00:01.527Z,95385
2019-05-26T14:01:11.077Z,95385
2019-05-26T14:02:20.799Z,95404
2019-05-26T14:03:30.277Z,95398
2019-05-26T14:04:39.821Z,95404
2019-05-26T14:05:50.178Z,95405
2019-05-26T14:06:59.462Z,95402
2019-05-26T14:08:09.604Z,95406
2019-05-26T14:09:19.173Z,95411
2019-05-26T14:10:28.721Z,95408
2019-05-26T14:11:38.262Z,95406
2019-05-26T14:12:47.786Z,95409
2019-05-26T14:13:57.334Z,95414
2019-05-26T14:15:06.917Z,95414
2019-05-26T14:16:16.438Z,95408
2019-05-26T14:17:25.991Z,95402
2019-05-26T14:18:35.513Z,95419
2019-05-26T14:19:45.201Z,95417
2019-05-26T14:20:54.742Z,95414
2019-05-26T14:22:04.278Z,95409
2019-05-26T14:23:13.815Z,95414
2019-05-26T14:24:23.369Z,95419
2019-05-26T14:25:32.902Z,95392
2019-05-26T14:26:42.422Z,95402
2019-05-26T14:27:51.936Z,95396
2019-05-26T14:29:01.584Z,95395
2019-05-26T14:30:11.125Z,95423
2019-05-26T14:31:20.623Z,95417
2019-05-26T14:32:31.146Z,95418
2019-05-26T14:33:40.677Z,95383
2019-05-26T14:34:50.377Z,95421
2019-05-26T14:35:59.888Z,95407
2019-05-26T14:37:09.434Z,95419
2019-05-26T14:38:18.948Z,95422
2019-05-26T14:39:29.483Z,95386
2019-05-26T14:40:39.006Z,95389
2019-05-26T14:41:48.572Z,95387
2019-05-26T14:42:58.111Z,95388
2019-05-26T14:44:07.697Z,95400
2019-05-26T14:45:17.273Z,95392
2019-05-26T14:46:26.821Z,95432
2019-05-26T14:47:36.379Z,95431
2019-05-26T14:48:45.909Z,95425
2019-05-26T14:49:55.485Z,95429
2019-05-26T14:51:05.048Z,95424
2019-05-26T14:52:14.552Z,95425
2019-05-26T14:53:24.079Z,95418
2019-05-26T14:54:33.649Z,95412
2019-05-26T14:55:44.202Z,95415
2019-05-26T14:56:54.448Z,95410